Time;durP1;ratioP1;P1;durP2;ratioP2;P2;SDS_P1;SDS_P2;PMS_P1;PMS_P2;Temp;Humidity;BMP_temperature;BMP_pressure;BME280_temperature;BME280_humidity;BME280_pressure;Samples;Min_cycle;Max_cycle;Signal;HPM_P1;HPM_P2
2021/01/11 00:00:09;;;;;;;35.65;18.35;;;22.50;29.70;;;;;;6081283;28;83848;-60
2021/01/11 00:03:09;;;;;;;36.15;19.50;;;22.50;29.90;;;;;;6100629;28;83017;-60
2021/01/11 00:06:10;;;;;;;34.08;19.02;;;22.50;29.70;;;;;;6099533;28;83495;-60
2021/01/11 00:09:10;;;;;;;31.85;17.48;;;22.40;29.80;;;;;;6101409;28;85387;-60
2021/01/11 00:12:11;;;;;;;33.67;18.10;;;22.40;29.90;;;;;;6098354;28;83504;-60
2021/01/11 00:15:11;;;;;;;33.60;19.23;;;22.40;29.80;;;;;;6101973;28;83221;-59
2021/01/11 00:18:12;;;;;;;35.13;17.80;;;22.40;29.80;;;;;;6101999;28;83277;-61
2021/01/11 00:21:12;;;;;;;36.67;19.98;;;22.40;29.80;;;;;;6099495;28;83888;-61
2021/01/11 00:24:13;;;;;;;37.08;19.60;;;22.40;29.80;;;;;;6107286;28;85774;-61
2021/01/11 00:27:13;;;;;;;38.03;20.20;;;22.40;29.90;;;;;;6099266;28;83454;-61
2021/01/11 00:30:14;;;;;;;37.60;20.25;;;22.40;29.70;;;;;;6088448;28;83259;-61
2021/01/11 00:33:14;;;;;;;35.53;20.30;;;22.40;30.00;;;;;;6096632;28;83778;-61
2021/01/11 00:36:15;;;;;;;36.60;19.05;;;22.40;29.80;;;;;;6090139;28;82877;-61
2021/01/11 00:39:15;;;;;;;35.72;19.70;;;22.40;29.90;;;;;;6086850;28;88823;-63
2021/01/11 00:42:16;;;;;;;37.47;20.27;;;22.40;29.90;;;;;;6097058;28;83311;-62
2021/01/11 00:45:18;;;;;;;36.90;19.02;;;22.40;29.80;;;;;;6089749;28;83934;-61
2021/01/11 00:48:18;;;;;;;40.83;21.73;;;22.40;29.80;;;;;;6088334;28;83706;-60
2021/01/11 00:51:19;;;;;;;36.97;19.17;;;22.40;29.90;;;;;;6090760;28;83816;-61
2021/01/11 00:54:20;;;;;;;37.75;19.00;;;22.40;29.90;;;;;;6102782;28;84208;-61
2021/01/11 00:57:21;;;;;;;36.05;19.65;;;22.40;29.90;;;;;;6103466;28;83121;-61
2021/01/11 01:00:29;;;;;;;34.42;19.25;;;22.40;29.90;;;;;;6094884;28;84843;-61
2021/01/11 01:03:40;;;;;;;35.35;18.95;;;22.30;29.80;;;;;;6113004;28;85497;-61
2021/01/11 01:06:41;;;;;;;35.35;19.13;;;22.30;30.00;;;;;;6089162;28;83142;-61
2021/01/11 01:09:41;;;;;;;32.38;18.85;;;22.30;30.00;;;;;;6089165;28;83857;-62
2021/01/11 01:12:42;;;;;;;38.38;19.25;;;22.30;30.20;;;;;;6093621;28;83288;-61
2021/01/11 01:15:42;;;;;;;36.35;18.55;;;22.30;30.00;;;;;;6093388;28;83416;-61
2021/01/11 01:18:43;;;;;;;38.17;19.48;;;22.30;30.00;;;;;;6091057;28;83925;-61
2021/01/11 01:21:43;;;;;;;35.25;18.38;;;22.30;29.90;;;;;;6096252;28;83183;-61
2021/01/11 01:24:44;;;;;;;38.50;20.52;;;22.30;29.80;;;;;;6095957;28;83710;-61
2021/01/11 01:27:45;;;;;;;38.50;20.00;;;22.30;30.00;;;;;;6099576;28;83002;-61
2021/01/11 01:30:45;;;;;;;35.17;20.05;;;22.30;30.00;;;;;;6097719;28;84963;-60
2021/01/11 01:33:46;;;;;;;36.60;20.10;;;22.30;29.90;;;;;;6100303;28;83255;-60
2021/01/11 01:36:46;;;;;;;35.65;19.35;;;22.30;29.90;;;;;;6100936;28;83072;-61
2021/01/11 01:39:47;;;;;;;33.53;19.27;;;22.20;29.80;;;;;;6099113;28;84194;-61
2021/01/11 01:42:47;;;;;;;33.65;18.65;;;22.20;29.90;;;;;;6090883;28;83323;-61
2021/01/11 01:45:48;;;;;;;35.97;19.85;;;22.20;29.90;;;;;;6096960;28;83638;-61
2021/01/11 01:48:48;;;;;;;37.10;19.88;;;22.20;29.80;;;;;;6079704;28;84079;-62
2021/01/11 01:51:49;;;;;;;38.75;21.35;;;22.20;29.90;;;;;;6098202;28;83839;-61
2021/01/11 01:54:49;;;;;;;40.38;21.13;;;22.20;29.80;;;;;;6088830;28;85570;-61
2021/01/11 01:57:50;;;;;;;35.60;19.65;;;22.20;29.80;;;;;;6087355;28;83423;-61
2021/01/11 02:00:50;;;;;;;38.80;19.98;;;22.20;29.80;;;;;;6088831;28;83333;-61
2021/01/11 02:03:51;;;;;;;34.30;19.00;;;22.20;29.90;;;;;;6100261;28;84132;-61
2021/01/11 02:06:51;;;;;;;38.30;19.75;;;22.20;29.90;;;;;;6099893;28;83123;-60
2021/01/11 02:09:52;;;;;;;40.25;20.20;;;22.20;29.80;;;;;;6090199;28;83364;-60
2021/01/11 02:12:52;;;;;;;39.97;21.58;;;22.20;29.80;;;;;;6099627;28;83546;-60
2021/01/11 02:15:53;;;;;;;37.45;20.60;;;22.20;29.90;;;;;;6088857;28;83286;-60
2021/01/11 02:18:53;;;;;;;38.75;20.30;;;22.20;30.30;;;;;;6096399;28;83515;-60
2021/01/11 02:21:54;;;;;;;40.30;21.67;;;22.20;29.80;;;;;;6098228;28;83078;-61
2021/01/11 02:24:54;;;;;;;42.38;22.23;;;22.20;29.90;;;;;;6093661;28;83899;-61
2021/01/11 02:27:55;;;;;;;41.88;21.48;;;22.20;30.00;;;;;;6094695;28;82993;-61
2021/01/11 02:30:55;;;;;;;46.28;22.48;;;22.20;30.00;;;;;;6091235;28;83162;-61
2021/01/11 02:33:56;;;;;;;40.45;22.15;;;22.10;29.80;;;;;;6101026;28;83254;-60
2021/01/11 02:36:56;;;;;;;39.75;22.80;;;22.10;29.90;;;;;;6097820;28;83121;-60
2021/01/11 02:39:57;;;;;;;42.63;22.95;;;22.10;29.80;;;;;;6082393;28;84220;-61
2021/01/11 02:42:57;;;;;;;39.63;22.08;;;22.10;29.90;;;;;;6097093;28;83614;-61
2021/01/11 02:45:58;;;;;;;44.05;23.40;;;22.10;29.80;;;;;;6092980;28;84212;-61
2021/01/11 02:48:58;;;;;;;44.20;23.98;;;22.10;29.70;;;;;;6095498;28;83536;-61
2021/01/11 02:51:59;;;;;;;43.90;22.83;;;22.10;29.70;;;;;;6088703;28;83345;-61
2021/01/11 02:54:59;;;;;;;45.38;22.98;;;22.00;29.60;;;;;;6096689;28;84437;-61
2021/01/11 02:58:00;;;;;;;44.72;23.73;;;22.10;29.70;;;;;;6085297;28;84412;-61
2021/01/11 03:01:00;;;;;;;46.92;24.25;;;22.10;29.70;;;;;;6061650;28;83558;-60
2021/01/11 03:04:01;;;;;;;47.85;24.50;;;22.00;29.50;;;;;;6067962;28;83027;-60
2021/01/11 03:07:01;;;;;;;49.75;25.48;;;22.00;29.40;;;;;;6073812;28;83732;-60
2021/01/11 03:10:02;;;;;;;46.78;25.58;;;22.10;29.80;;;;;;6070339;28;83500;-60
2021/01/11 03:13:02;;;;;;;51.13;26.73;;;22.10;29.90;;;;;;6071202;28;83314;-59
2021/01/11 03:16:03;;;;;;;49.47;27.10;;;22.00;30.00;;;;;;6070095;28;83323;-59
2021/01/11 03:19:03;;;;;;;47.85;27.20;;;22.00;30.00;;;;;;6068285;28;83365;-59
2021/01/11 03:22:04;;;;;;;51.38;28.42;;;22.00;30.00;;;;;;6070638;28;83484;-59
2021/01/11 03:25:05;;;;;;;51.28;27.00;;;22.00;30.00;;;;;;6075896;28;82931;-60
2021/01/11 03:28:05;;;;;;;56.08;29.90;;;22.00;30.10;;;;;;6068496;28;94861;-60
2021/01/11 03:31:06;;;;;;;57.25;30.70;;;22.00;30.00;;;;;;6072606;28;82923;-61
2021/01/11 03:34:06;;;;;;;58.22;30.70;;;22.00;30.00;;;;;;6061180;28;83926;-60
2021/01/11 03:37:07;;;;;;;56.40;30.33;;;22.00;30.20;;;;;;6071023;28;83151;-61
2021/01/11 03:40:07;;;;;;;59.85;32.08;;;22.00;30.00;;;;;;6069661;28;84469;-60
2021/01/11 03:43:08;;;;;;;62.47;32.45;;;22.00;30.00;;;;;;6079777;28;83495;-60
2021/01/11 03:46:08;;;;;;;60.67;31.85;;;22.00;30.00;;;;;;6085623;28;83570;-60
2021/01/11 03:49:09;;;;;;;58.22;32.25;;;22.00;30.00;;;;;;6058464;28;83818;-61
2021/01/11 03:52:09;;;;;;;63.45;32.90;;;22.00;30.00;;;;;;6058586;28;83524;-61
2021/01/11 03:55:10;;;;;;;66.82;32.97;;;22.00;30.00;;;;;;6077643;28;82803;-60
2021/01/11 03:58:10;;;;;;;59.75;32.45;;;22.00;30.10;;;;;;6080702;28;83896;-60
2021/01/11 04:01:11;;;;;;;65.05;34.67;;;22.00;30.00;;;;;;6102248;28;83597;-61
2021/01/11 04:04:11;;;;;;;66.40;34.70;;;22.00;29.80;;;;;;6101724;28;86569;-61
2021/01/11 04:07:12;;;;;;;62.33;33.55;;;21.90;29.80;;;;;;6087472;28;83636;-61
2021/01/11 04:10:12;;;;;;;70.70;36.40;;;21.90;29.70;;;;;;6101281;28;83060;-62
2021/01/11 04:13:13;;;;;;;66.07;34.53;;;21.90;29.50;;;;;;6091709;28;83961;-61
2021/01/11 04:16:13;;;;;;;69.32;35.78;;;21.90;29.50;;;;;;6101166;28;84338;-61
2021/01/11 04:19:14;;;;;;;62.00;32.78;;;21.90;29.40;;;;;;6103912;28;83150;-61
2021/01/11 04:22:14;;;;;;;66.60;34.88;;;21.90;29.30;;;;;;6101419;28;83392;-60
2021/01/11 04:25:15;;;;;;;69.07;35.58;;;21.90;29.10;;;;;;6091001;28;83457;-63
2021/01/11 04:28:15;;;;;;;73.53;36.63;;;21.90;29.10;;;;;;6101077;28;83139;-63
2021/01/11 04:31:17;;;;;;;65.57;35.50;;;21.90;28.90;;;;;;6099261;28;82875;-60
2021/01/11 04:34:17;;;;;;;63.08;34.55;;;21.90;29.00;;;;;;6098271;28;83191;-60
2021/01/11 04:37:18;;;;;;;60.22;33.25;;;21.90;28.90;;;;;;6102300;28;83796;-60
2021/01/11 04:40:18;;;;;;;64.15;34.85;;;21.80;28.80;;;;;;6086248;28;83551;-60
2021/01/11 04:43:19;;;;;;;63.38;34.28;;;21.80;28.80;;;;;;6100024;28;83404;-60
2021/01/11 04:46:19;;;;;;;61.10;32.33;;;21.90;28.80;;;;;;6101131;28;86202;-61
2021/01/11 04:49:20;;;;;;;66.40;33.67;;;21.80;29.40;;;;;;6100274;28;83185;-60
2021/01/11 04:52:20;;;;;;;62.58;33.75;;;21.90;28.90;;;;;;6102781;28;85464;-60
2021/01/11 04:55:21;;;;;;;61.00;34.25;;;22.00;28.40;;;;;;6095280;28;83526;-59
2021/01/11 04:58:21;;;;;;;64.13;33.67;;;22.00;28.40;;;;;;6099373;28;83765;-60
2021/01/11 05:01:22;;;;;;;58.53;31.55;;;22.10;28.50;;;;;;6100810;28;83370;-60
2021/01/11 05:04:23;;;;;;;59.28;31.92;;;22.20;28.40;;;;;;6100443;28;83563;-60
2021/01/11 05:07:23;;;;;;;60.75;31.85;;;22.20;28.10;;;;;;6095960;28;83206;-60
2021/01/11 05:10:24;;;;;;;55.80;30.17;;;22.30;28.10;;;;;;6099087;28;84356;-59
2021/01/11 05:13:24;;;;;;;55.08;30.63;;;22.30;28.10;;;;;;6096804;28;83700;-59
2021/01/11 05:16:25;;;;;;;56.97;29.70;;;22.30;28.20;;;;;;6099523;28;83781;-59
2021/01/11 05:19:25;;;;;;;56.88;30.38;;;22.40;28.10;;;;;;6099456;28;83211;-59
2021/01/11 05:22:26;;;;;;;53.85;29.70;;;22.40;28.10;;;;;;6110890;28;82937;-61
2021/01/11 05:25:26;;;;;;;53.00;27.52;;;22.40;28.00;;;;;;6100967;28;83345;-61
2021/01/11 05:28:27;;;;;;;53.28;28.85;;;22.50;28.50;;;;;;6081055;28;83720;-61
2021/01/11 05:31:27;;;;;;;53.28;28.83;;;22.50;28.00;;;;;;6094928;28;83248;-62
2021/01/11 05:34:28;;;;;;;54.42;27.02;;;22.60;28.40;;;;;;6098333;28;83776;-61
2021/01/11 05:37:28;;;;;;;47.10;24.45;;;22.60;28.00;;;;;;6092006;28;83358;-61
2021/01/11 05:40:29;;;;;;;41.10;22.17;;;22.70;29.30;;;;;;6091217;28;83186;-60
2021/01/11 05:43:30;;;;;;;33.67;17.85;;;22.70;30.50;;;;;;6097294;28;83476;-60
2021/01/11 05:46:31;;;;;;;28.83;16.35;;;22.70;31.50;;;;;;6110756;28;86956;-60
2021/01/11 05:49:31;;;;;;;31.60;15.68;;;22.70;32.00;;;;;;6098077;28;83704;-69
2021/01/11 05:52:32;;;;;;;26.00;14.10;;;22.80;33.00;;;;;;6087057;28;83329;-69
2021/01/11 05:55:32;;;;;;;27.83;14.15;;;22.80;33.60;;;;;;6092275;28;83487;-67
2021/01/11 05:58:33;;;;;;;27.33;13.50;;;22.80;34.20;;;;;;6100382;28;83310;-70
2021/01/11 06:01:33;;;;;;;24.35;14.45;;;22.80;34.30;;;;;;6088302;28;83541;-70
2021/01/11 06:04:34;;;;;;;30.73;14.27;;;22.90;35.00;;;;;;6097884;28;84599;-69
2021/01/11 06:07:34;;;;;;;27.15;13.88;;;22.90;35.20;;;;;;6100897;28;83869;-71
2021/01/11 06:10:35;;;;;;;24.83;13.00;;;22.90;36.40;;;;;;6098972;28;89414;-68
2021/01/11 06:13:35;;;;;;;23.35;13.57;;;22.90;36.40;;;;;;6100425;28;83480;-68
2021/01/11 06:16:36;;;;;;;27.33;14.80;;;23.00;36.80;;;;;;6087221;28;83713;-69
2021/01/11 06:19:36;;;;;;;28.25;15.05;;;23.00;37.10;;;;;;6094866;28;84038;-68
2021/01/11 06:22:37;;;;;;;28.30;14.80;;;23.00;37.10;;;;;;6098779;28;83809;-70
2021/01/11 06:25:37;;;;;;;26.77;14.27;;;23.00;37.30;;;;;;6097395;28;83642;-69
2021/01/11 06:28:38;;;;;;;25.30;13.65;;;23.10;37.20;;;;;;6098729;28;83064;-69
2021/01/11 06:31:38;;;;;;;28.05;13.77;;;23.10;37.30;;;;;;6095287;28;84007;-68
2021/01/11 06:34:40;;;;;;;23.05;12.65;;;23.10;37.30;;;;;;6098280;28;83291;-69
2021/01/11 06:37:41;;;;;;;27.85;14.77;;;23.10;37.20;;;;;;6092890;28;83741;-69
2021/01/11 06:40:41;;;;;;;25.67;14.85;;;23.10;37.00;;;;;;6100337;28;83369;-69
2021/01/11 06:43:41;;;;;;;29.50;14.95;;;23.10;36.90;;;;;;6091610;28;83492;-67
2021/01/11 06:46:42;;;;;;;24.83;13.60;;;23.10;37.20;;;;;;6093071;28;83014;-66
2021/01/11 06:49:43;;;;;;;26.05;14.48;;;23.10;36.60;;;;;;6091268;28;84399;-70
2021/01/11 06:52:43;;;;;;;28.13;16.13;;;23.00;36.30;;;;;;6096236;28;83068;-68
2021/01/11 06:55:44;;;;;;;31.65;16.75;;;23.00;36.50;;;;;;6098008;28;83870;-72
2021/01/11 06:58:44;;;;;;;29.20;16.05;;;23.00;35.60;;;;;;6097347;28;82957;-70
2021/01/11 07:01:45;;;;;;;28.42;14.70;;;23.00;35.20;;;;;;6091934;28;83342;-70
2021/01/11 07:04:46;;;;;;;29.40;16.23;;;23.00;34.70;;;;;;6097533;28;83733;-70
2021/01/11 07:07:47;;;;;;;32.78;16.95;;;23.00;34.70;;;;;;6095342;28;83734;-69
2021/01/11 07:10:47;;;;;;;30.05;16.08;;;23.00;34.00;;;;;;6093860;28;83377;-65
2021/01/11 07:13:48;;;;;;;29.38;16.27;;;23.00;34.20;;;;;;6086585;28;83700;-70
2021/01/11 07:16:49;;;;;;;29.95;17.45;;;23.00;33.70;;;;;;6099302;28;83751;-68
2021/01/11 07:19:50;;;;;;;31.83;16.50;;;22.90;33.30;;;;;;6096405;28;86377;-65
2021/01/11 07:22:50;;;;;;;30.00;17.33;;;22.90;32.90;;;;;;6097421;28;83524;-67
2021/01/11 07:25:51;;;;;;;44.65;18.75;;;22.90;32.80;;;;;;6095675;28;83265;-68
2021/01/11 07:28:52;;;;;;;31.33;17.30;;;22.90;33.00;;;;;;6103534;28;83594;-68
2021/01/11 07:31:52;;;;;;;27.85;17.00;;;22.90;32.30;;;;;;6102661;28;83347;-68
2021/01/11 07:34:53;;;;;;;34.63;17.95;;;22.90;32.20;;;;;;6098013;28;83332;-70
2021/01/11 07:37:53;;;;;;;34.08;18.73;;;22.90;31.80;;;;;;6101112;28;83276;-68
2021/01/11 07:40:53;;;;;;;34.80;18.65;;;22.90;31.60;;;;;;6099755;28;83635;-68
2021/01/11 07:43:54;;;;;;;33.55;19.20;;;23.00;31.30;;;;;;6088810;28;86305;-67
2021/01/11 07:46:55;;;;;;;33.53;18.25;;;23.00;31.40;;;;;;6090947;28;86380;-68
2021/01/11 07:49:55;;;;;;;32.72;17.42;;;22.90;30.90;;;;;;6097189;28;83432;-68
2021/01/11 07:52:56;;;;;;;37.03;18.02;;;23.00;30.80;;;;;;6088808;28;84289;-67
2021/01/11 07:55:56;;;;;;;32.85;17.67;;;23.00;29.90;;;;;;6094818;28;84239;-67
2021/01/11 07:58:57;;;;;;;34.72;17.45;;;23.00;29.90;;;;;;6093781;28;87157;-69
2021/01/11 08:01:58;;;;;;;36.05;17.67;;;23.10;29.90;;;;;;6100264;28;83578;-68
2021/01/11 08:04:58;;;;;;;28.77;16.55;;;23.10;29.80;;;;;;6097040;28;84271;-67
2021/01/11 08:07:59;;;;;;;32.53;17.73;;;23.10;29.50;;;;;;6100558;28;83025;-67
2021/01/11 08:10:59;;;;;;;35.83;18.95;;;23.20;29.60;;;;;;6099146;28;83448;-68
2021/01/11 08:14:00;;;;;;;34.42;18.30;;;23.20;29.00;;;;;;6094218;28;83804;-67
2021/01/11 08:17:00;;;;;;;31.38;17.42;;;23.20;28.90;;;;;;6095481;28;84585;-67
2021/01/11 08:20:01;;;;;;;34.47;19.20;;;23.20;28.90;;;;;;6106210;28;83406;-66
2021/01/11 08:23:02;;;;;;;37.90;17.55;;;23.20;28.90;;;;;;6084929;28;83783;-67
2021/01/11 08:26:03;;;;;;;32.55;16.88;;;23.30;29.30;;;;;;6091843;28;83504;-69
2021/01/11 08:29:03;;;;;;;32.05;17.83;;;23.30;29.40;;;;;;6092947;28;83355;-70
2021/01/11 08:32:04;;;;;;;35.28;18.83;;;23.40;29.80;;;;;;6099343;28;83224;-68
2021/01/11 08:35:04;;;;;;;30.88;17.73;;;23.40;30.00;;;;;;6097282;28;83575;-68
2021/01/11 08:38:08;;;;;;;33.33;17.88;;;23.40;29.90;;;;;;6101265;28;85043;-69
2021/01/11 08:41:09;;;;;;;39.60;21.17;;;23.50;29.80;;;;;;6096591;28;84509;-70
2021/01/11 08:44:09;;;;;;;37.92;20.13;;;23.50;29.30;;;;;;6090910;28;83319;-69
2021/01/11 08:47:10;;;;;;;37.17;20.60;;;23.50;29.50;;;;;;6099675;28;83506;-69
2021/01/11 08:50:10;;;;;;;37.53;21.55;;;23.60;29.20;;;;;;6091662;28;83322;-68
2021/01/11 08:53:11;;;;;;;36.42;21.40;;;23.60;28.90;;;;;;6085389;28;84038;-69
2021/01/11 08:56:11;;;;;;;40.67;21.92;;;23.60;29.30;;;;;;6097203;28;87178;-69
2021/01/11 08:59:12;;;;;;;39.20;21.73;;;23.60;29.30;;;;;;6087895;28;84122;-68
2021/01/11 09:02:12;;;;;;;34.40;19.90;;;23.70;29.20;;;;;;6093155;28;83515;-69
2021/01/11 09:05:13;;;;;;;41.80;23.17;;;23.70;29.10;;;;;;6073686;28;83703;-68
2021/01/11 09:08:15;;;;;;;42.95;23.42;;;23.70;28.90;;;;;;6094909;28;83768;-69
2021/01/11 09:11:15;;;;;;;39.88;21.70;;;23.70;29.00;;;;;;6098624;28;83161;-68
2021/01/11 09:14:16;;;;;;;38.17;21.70;;;23.80;28.90;;;;;;6087038;28;83125;-68
2021/01/11 09:17:17;;;;;;;38.55;20.90;;;23.80;28.70;;;;;;6088135;28;83676;-68
2021/01/11 09:20:17;;;;;;;39.88;22.25;;;23.80;28.60;;;;;;6098192;28;83468;-68
2021/01/11 09:23:18;;;;;;;40.30;23.40;;;23.90;28.80;;;;;;6097232;28;83777;-67
2021/01/11 09:26:18;;;;;;;39.13;21.38;;;23.90;28.60;;;;;;6092140;28;84393;-66
2021/01/11 09:29:19;;;;;;;38.90;21.85;;;23.90;28.50;;;;;;6071919;28;83589;-66
2021/01/11 09:32:19;;;;;;;37.47;20.88;;;23.90;28.20;;;;;;6084452;28;84584;-67
2021/01/11 09:35:20;;;;;;;37.95;22.42;;;24.00;28.20;;;;;;6069817;28;82880;-75
2021/01/11 09:38:20;;;;;;;38.60;21.38;;;24.00;27.80;;;;;;6090786;28;86458;-68
2021/01/11 09:41:21;;;;;;;39.25;21.02;;;24.00;28.00;;;;;;6088059;28;83117;-66
2021/01/11 09:44:21;;;;;;;35.35;22.13;;;24.00;27.90;;;;;;6100755;28;85352;-68
2021/01/11 09:47:23;;;;;;;39.80;23.00;;;24.00;27.90;;;;;;6090473;28;83274;-66
2021/01/11 09:50:23;;;;;;;34.50;21.25;;;24.00;28.40;;;;;;6094487;28;83671;-71
2021/01/11 09:53:24;;;;;;;36.00;21.70;;;24.10;28.80;;;;;;6093312;28;82977;-67
2021/01/11 09:56:24;;;;;;;39.47;22.02;;;24.10;28.30;;;;;;6091397;28;83317;-62
2021/01/11 09:59:25;;;;;;;27.95;17.77;;;24.10;28.60;;;;;;6093246;28;85450;-60
2021/01/11 10:02:25;;;;;;;26.85;16.60;;;24.10;29.40;;;;;;6088712;28;83535;-62
2021/01/11 10:05:28;;;;;;;23.15;14.30;;;24.10;30.10;;;;;;6094623;28;83199;-62
2021/01/11 10:08:28;;;;;;;22.13;12.50;;;24.20;29.70;;;;;;6097173;28;83602;-62
2021/01/11 10:11:29;;;;;;;21.00;12.40;;;24.20;29.50;;;;;;6093859;28;83466;-63
2021/01/11 10:14:29;;;;;;;22.63;13.38;;;24.30;29.60;;;;;;6094329;28;82965;-61
2021/01/11 10:17:30;;;;;;;20.52;12.52;;;24.30;29.60;;;;;;6097131;28;83910;-69
2021/01/11 10:20:30;;;;;;;20.08;11.55;;;24.30;29.90;;;;;;6094057;28;83895;-63
2021/01/11 10:23:31;;;;;;;18.80;11.23;;;24.30;29.70;;;;;;6088571;28;83226;-67
2021/01/11 10:26:31;;;;;;;21.70;12.10;;;24.30;29.70;;;;;;6088334;28;83219;-64
2021/01/11 10:29:32;;;;;;;17.17;10.52;;;24.30;29.50;;;;;;6087616;28;83497;-65
2021/01/11 10:32:32;;;;;;;17.73;10.27;;;24.40;29.40;;;;;;6106238;28;84171;-64
2021/01/11 10:35:34;;;;;;;18.75;10.27;;;24.40;29.90;;;;;;6113313;28;85193;-64
2021/01/11 10:38:35;;;;;;;20.05;11.05;;;24.40;29.50;;;;;;6095975;28;83203;-64
2021/01/11 10:41:35;;;;;;;18.20;10.95;;;24.40;28.80;;;;;;6107649;28;84772;-65
2021/01/11 10:44:36;;;;;;;15.93;10.38;;;24.40;28.80;;;;;;6090616;28;84290;-64
2021/01/11 10:47:36;;;;;;;16.10;9.00;;;24.40;29.00;;;;;;6094379;28;85571;-63
2021/01/11 10:50:37;;;;;;;14.63;8.57;;;24.40;29.50;;;;;;6098300;28;83669;-63
2021/01/11 10:53:37;;;;;;;16.95;9.65;;;24.40;29.00;;;;;;6101172;28;80409;-63
2021/01/11 10:56:38;;;;;;;17.50;9.27;;;24.50;29.00;;;;;;6097786;28;81126;-64
2021/01/11 10:59:38;;;;;;;16.10;9.13;;;24.50;29.30;;;;;;6093662;28;81149;-63
2021/01/11 11:02:39;;;;;;;14.98;9.00;;;24.50;29.70;;;;;;6088182;28;81497;-63
2021/01/11 11:05:40;;;;;;;15.35;9.30;;;24.50;29.80;;;;;;6112161;28;81099;-65
2021/01/11 11:08:40;;;;;;;15.90;9.27;;;24.50;29.80;;;;;;6107297;28;80660;-64
2021/01/11 11:11:41;;;;;;;12.30;8.18;;;24.50;29.50;;;;;;6102540;28;81238;-66
2021/01/11 11:14:41;;;;;;;16.63;9.07;;;24.50;29.20;;;;;;6095660;28;81007;-63
2021/01/11 11:17:42;;;;;;;13.13;7.75;;;24.60;28.90;;;;;;6091789;28;80659;-62
2021/01/11 11:20:42;;;;;;;16.48;8.60;;;24.60;28.80;;;;;;6086028;28;80744;-65
2021/01/11 11:23:43;;;;;;;15.88;8.82;;;24.60;29.00;;;;;;6098868;28;80932;-64
2021/01/11 11:26:43;;;;;;;15.18;9.32;;;24.60;29.10;;;;;;6092347;28;80474;-63
2021/01/11 11:29:44;;;;;;;13.35;8.38;;;24.60;29.20;;;;;;6102694;28;81436;-62
2021/01/11 11:32:45;;;;;;;15.98;8.48;;;24.70;29.30;;;;;;6100536;28;83488;-64
2021/01/11 11:35:46;;;;;;;15.10;9.05;;;24.70;29.30;;;;;;6099143;28;80455;-64
2021/01/11 11:38:46;;;;;;;17.02;9.55;;;24.70;29.10;;;;;;6096246;28;80278;-60
2021/01/11 11:41:47;;;;;;;16.02;9.45;;;24.60;29.10;;;;;;6102779;28;83319;-60
2021/01/11 11:44:47;;;;;;;18.45;11.05;;;24.60;29.30;;;;;;6100534;28;81967;-60
2021/01/11 11:47:48;;;;;;;19.02;10.45;;;24.60;29.90;;;;;;6099792;28;83622;-60
2021/01/11 11:50:48;;;;;;;23.15;11.25;;;24.60;29.80;;;;;;6083771;28;83312;-60
2021/01/11 11:53:49;;;;;;;19.20;11.35;;;24.60;29.80;;;;;;6102716;28;83177;-60
2021/01/11 11:56:49;;;;;;;17.67;11.38;;;24.60;29.50;;;;;;6089718;28;83612;-60
2021/01/11 11:59:50;;;;;;;17.83;10.45;;;24.60;29.80;;;;;;6102930;28;83197;-60
2021/01/11 12:02:50;;;;;;;20.33;10.60;;;24.60;30.60;;;;;;6096011;28;85580;-60
2021/01/11 12:05:52;;;;;;;18.60;10.45;;;24.60;30.80;;;;;;6102645;28;82997;-60
2021/01/11 12:08:53;;;;;;;19.08;10.77;;;24.60;31.00;;;;;;6094874;28;83565;-60
2021/01/11 12:11:54;;;;;;;20.02;12.02;;;24.60;31.00;;;;;;6096136;28;83876;-60
2021/01/11 12:14:54;;;;;;;23.40;12.18;;;24.60;31.60;;;;;;6101766;28;84212;-61
2021/01/11 12:17:55;;;;;;;19.60;10.98;;;24.60;31.10;;;;;;6099808;28;86062;-60
2021/01/11 12:20:55;;;;;;;20.08;11.75;;;24.60;30.60;;;;;;6091281;28;83551;-60
2021/01/11 12:23:56;;;;;;;24.30;12.77;;;24.60;30.40;;;;;;6098539;28;83366;-60
2021/01/11 12:26:57;;;;;;;21.70;11.60;;;24.60;29.90;;;;;;6090514;28;84541;-60
2021/01/11 12:29:57;;;;;;;22.25;11.88;;;24.60;29.80;;;;;;6093565;28;83393;-62
2021/01/11 12:32:58;;;;;;;26.42;11.85;;;24.60;30.00;;;;;;6093997;28;83516;-59
2021/01/11 12:35:58;;;;;;;24.70;12.15;;;24.60;30.80;;;;;;6099274;28;83477;-60
2021/01/11 12:38:59;;;;;;;22.52;10.82;;;24.60;31.10;;;;;;6100114;28;83497;-59
2021/01/11 12:41:59;;;;;;;25.02;11.30;;;24.60;30.90;;;;;;6090274;28;83705;-59
2021/01/11 12:45:02;;;;;;;17.70;10.25;;;24.60;30.90;;;;;;6100485;28;86578;-60
2021/01/11 12:48:02;;;;;;;26.67;11.70;;;24.50;30.30;;;;;;6094016;28;83338;-59
2021/01/11 12:51:05;;;;;;;18.75;10.02;;;24.50;30.50;;;;;;6093589;28;83660;-59
2021/01/11 12:54:05;;;;;;;16.13;8.88;;;24.50;30.00;;;;;;6094625;28;86606;-60
2021/01/11 12:57:06;;;;;;;19.30;9.02;;;24.50;30.30;;;;;;6091762;28;83656;-59
2021/01/11 13:00:06;;;;;;;14.75;8.13;;;24.50;30.00;;;;;;6095424;28;80539;-59
2021/01/11 13:03:07;;;;;;;15.68;8.30;;;24.50;30.10;;;;;;6090359;28;80317;-59
2021/01/11 13:06:07;;;;;;;18.65;8.07;;;24.50;29.60;;;;;;6096773;28;81133;-59
2021/01/11 13:09:08;;;;;;;16.30;8.77;;;24.50;29.60;;;;;;6093446;28;80858;-59
2021/01/11 13:12:08;;;;;;;16.50;8.32;;;24.50;29.70;;;;;;6102905;28;81658;-59
2021/01/11 13:15:09;;;;;;;14.10;7.90;;;24.50;29.80;;;;;;6099298;28;81788;-59
2021/01/11 13:18:09;;;;;;;16.17;8.35;;;24.50;29.60;;;;;;6101436;28;80836;-59
2021/01/11 13:21:10;;;;;;;18.00;8.13;;;24.50;29.70;;;;;;6101676;28;80868;-60
2021/01/11 13:24:10;;;;;;;17.63;9.57;;;24.50;29.30;;;;;;6091028;28;84146;-59
2021/01/11 13:27:11;;;;;;;15.15;8.30;;;24.50;29.30;;;;;;6107433;28;81541;-59
2021/01/11 13:30:11;;;;;;;14.35;7.72;;;24.50;29.20;;;;;;6103352;28;80845;-58
2021/01/11 13:33:12;;;;;;;13.20;7.47;;;24.50;29.10;;;;;;6096657;28;81648;-58
2021/01/11 13:36:12;;;;;;;13.70;8.15;;;24.50;29.60;;;;;;6094806;28;83257;-58
2021/01/11 13:39:13;;;;;;;13.50;7.45;;;24.50;28.90;;;;;;6100221;28;81562;-58
2021/01/11 13:42:13;;;;;;;12.35;7.05;;;24.50;28.80;;;;;;6112172;28;81355;-58
2021/01/11 13:45:14;;;;;;;15.10;8.45;;;24.50;28.80;;;;;;6103973;28;80913;-59
2021/01/11 13:48:14;;;;;;;13.05;8.57;;;24.50;29.10;;;;;;6085182;28;80559;-59
2021/01/11 13:51:15;;;;;;;19.95;9.75;;;24.50;29.00;;;;;;6102871;28;80605;-60
2021/01/11 13:54:15;;;;;;;17.65;9.52;;;24.40;28.80;;;;;;6095991;28;80692;-60
2021/01/11 13:57:16;;;;;;;16.92;10.10;;;24.40;28.70;;;;;;6099306;28;81427;-59
2021/01/11 14:00:16;;;;;;;18.95;11.60;;;24.40;29.10;;;;;;6099757;28;82802;-60
2021/01/11 14:03:17;;;;;;;28.75;13.93;;;24.40;29.30;;;;;;6069722;28;84096;-61
2021/01/11 14:06:19;;;;;;;23.52;13.65;;;24.30;28.60;;;;;;6089016;28;84415;-61
2021/01/11 14:09:20;;;;;;;25.27;14.57;;;24.30;28.60;;;;;;6070462;28;87505;-62
2021/01/11 14:12:20;;;;;;;25.38;14.50;;;24.30;28.90;;;;;;6090356;28;83513;-60
2021/01/11 14:15:21;;;;;;;21.42;13.50;;;24.20;29.30;;;;;;6073592;28;86847;-60
2021/01/11 14:18:21;;;;;;;18.00;11.48;;;24.20;29.30;;;;;;6097849;28;83806;-61
2021/01/11 14:21:22;;;;;;;18.50;11.38;;;24.20;29.20;;;;;;6097242;28;83671;-61
2021/01/11 14:24:22;;;;;;;26.27;10.55;;;24.30;29.40;;;;;;6098044;28;84273;-61
2021/01/11 14:27:23;;;;;;;20.13;11.13;;;24.30;29.20;;;;;;6078220;28;85181;-60
2021/01/11 14:30:23;;;;;;;17.00;9.95;;;24.20;29.20;;;;;;6096700;28;84149;-60
2021/01/11 14:33:24;;;;;;;16.95;9.02;;;24.20;29.00;;;;;;6098150;28;82931;-61
2021/01/11 14:36:26;;;;;;;17.17;8.15;;;24.20;29.10;;;;;;6097181;28;80641;-61
2021/01/11 14:39:27;;;;;;;18.70;9.15;;;24.20;29.50;;;;;;6094182;28;80927;-62
2021/01/11 14:42:27;;;;;;;16.75;9.25;;;24.10;29.40;;;;;;6097213;28;82736;-62
2021/01/11 14:45:28;;;;;;;14.50;9.00;;;24.10;29.50;;;;;;6093172;28;81895;-62
2021/01/11 14:48:29;;;;;;;17.27;9.15;;;24.00;29.50;;;;;;6098266;28;81430;-61
2021/01/11 14:51:29;;;;;;;18.48;10.05;;;24.00;29.60;;;;;;6098975;28;81531;-62
2021/01/11 14:54:30;;;;;;;22.75;9.50;;;24.00;29.60;;;;;;6109380;28;84208;-62
2021/01/11 14:57:30;;;;;;;18.88;9.65;;;24.00;29.50;;;;;;6096491;28;87469;-62
2021/01/11 15:00:31;;;;;;;17.75;9.35;;;23.90;29.40;;;;;;6098157;28;85216;-64
2021/01/11 15:03:31;;;;;;;15.30;8.88;;;23.90;29.40;;;;;;6073512;28;81461;-64
2021/01/11 15:06:32;;;;;;;16.40;10.32;;;23.90;29.20;;;;;;6097629;28;80729;-63
2021/01/11 15:09:32;;;;;;;15.88;9.25;;;23.80;29.30;;;;;;6095159;28;85881;-63
2021/01/11 15:12:33;;;;;;;15.45;8.98;;;23.80;29.20;;;;;;6106836;28;82939;-61
2021/01/11 15:15:33;;;;;;;18.05;8.98;;;23.80;29.10;;;;;;6081678;28;81711;-62